createdAt,value
2022-09-24T00:01:32.069Z,15.69
2022-09-24T00:04:02.984Z,15.70
2022-09-24T00:06:34.754Z,15.70
2022-09-24T00:09:03.802Z,15.68
2022-09-24T00:11:32.089Z,15.65
2022-09-24T00:14:00.716Z,15.64
2022-09-24T00:16:33.785Z,15.64
2022-09-24T00:19:03.206Z,15.63
2022-09-24T00:21:33.494Z,15.59
2022-09-24T00:24:05.935Z,15.58
2022-09-24T00:26:53.244Z,15.58
2022-09-24T00:29:22.898Z,15.58
2022-09-24T00:31:52.067Z,15.57
2022-09-24T00:34:20.203Z,15.53
2022-09-24T00:36:48.396Z,15.53
2022-09-24T00:39:17.927Z,15.52
2022-09-24T00:41:47.124Z,15.52
2022-09-24T00:44:54.923Z,15.55
2022-09-24T00:47:36.024Z,15.52
2022-09-24T00:50:17.301Z,15.50
2022-09-24T00:52:49.774Z,15.51
2022-09-24T00:55:19.843Z,15.52
2022-09-24T00:57:50.085Z,15.49
2022-09-24T01:00:18.012Z,15.47
2022-09-24T01:02:49.837Z,15.46
2022-09-24T01:05:17.893Z,15.46
2022-09-24T01:07:48.152Z,15.45
2022-09-24T01:10:37.079Z,15.45
2022-09-24T01:13:14.938Z,15.46
2022-09-24T01:15:49.986Z,15.44
2022-09-24T01:18:28.151Z,15.43
2022-09-24T01:21:16.893Z,15.43
2022-09-24T01:23:58.751Z,15.43
2022-09-24T01:26:42.451Z,15.41
2022-09-24T01:29:42.320Z,15.43
2022-09-24T01:32:18.296Z,15.43
2022-09-24T01:34:50.185Z,15.43
2022-09-24T01:37:22.285Z,15.44
2022-09-24T01:39:52.565Z,15.45
2022-09-24T01:42:23.018Z,15.44
2022-09-24T01:44:52.459Z,15.43
2022-09-24T01:47:25.555Z,15.42
2022-09-24T01:49:53.994Z,15.40
2022-09-24T01:52:27.215Z,15.39
2022-09-24T01:54:57.623Z,15.37
2022-09-24T01:57:30.012Z,15.35
2022-09-24T02:00:06.392Z,15.35
2022-09-24T02:02:40.642Z,15.35
2022-09-24T02:05:15.976Z,15.33
2022-09-24T02:07:50.621Z,15.32
2022-09-24T02:10:21.310Z,15.30
2022-09-24T02:12:53.578Z,15.28
2022-09-24T02:15:32.204Z,15.28
2022-09-24T02:18:04.944Z,15.27
2022-09-24T02:20:35.442Z,15.26
2022-09-24T02:23:05.801Z,15.22
2022-09-24T02:25:39.300Z,15.21
2022-09-24T02:28:06.968Z,15.20
2022-09-24T02:30:41.351Z,15.17
2022-09-24T02:33:31.725Z,15.15
2022-09-24T02:35:58.852Z,15.14
2022-09-24T02:38:26.505Z,15.12
2022-09-24T02:40:55.212Z,15.12
2022-09-24T02:43:22.929Z,15.11
2022-09-24T02:45:51.938Z,15.08
2022-09-24T02:48:19.623Z,15.07
2022-09-24T02:50:47.359Z,15.05
2022-09-24T02:53:15.006Z,15.07
2022-09-24T02:55:42.988Z,15.02
2022-09-24T02:58:10.633Z,15.03
2022-09-24T03:00:38.764Z,15.05
2022-09-24T03:03:07.847Z,15.05
2022-09-24T03:05:35.489Z,15.06
2022-09-24T03:08:03.220Z,15.07
2022-09-24T03:10:31.242Z,15.04
2022-09-24T03:12:59.037Z,15.05
2022-09-24T03:15:26.769Z,15.04
2022-09-24T03:17:54.385Z,15.05
2022-09-24T03:20:24.186Z,15.04
2022-09-24T03:22:52.492Z,15.06
2022-09-24T03:25:20.543Z,15.05
2022-09-24T03:27:48.231Z,15.05
2022-09-24T03:30:33.330Z,15.06
2022-09-24T03:33:00.985Z,15.05
2022-09-24T03:35:29.945Z,15.05
2022-09-24T03:37:57.573Z,15.05
2022-09-24T03:40:25.818Z,15.04
2022-09-24T03:42:53.484Z,15.03
2022-09-24T03:45:21.138Z,14.99
2022-09-24T03:47:48.707Z,14.99
2022-09-24T03:50:17.244Z,14.98
2022-09-24T03:52:46.228Z,14.97
2022-09-24T03:55:14.973Z,14.96
2022-09-24T03:57:42.652Z,14.95
2022-09-24T04:00:12.085Z,14.93
2022-09-24T04:02:40.629Z,14.91
2022-09-24T04:05:08.837Z,14.90
2022-09-24T04:07:36.424Z,14.89
2022-09-24T04:10:05.964Z,14.88
2022-09-24T04:12:33.585Z,14.89
2022-09-24T04:15:02.521Z,14.87
2022-09-24T04:17:31.428Z,14.86
2022-09-24T04:19:59.060Z,14.86
2022-09-24T04:22:27.842Z,14.85
2022-09-24T04:24:55.687Z,14.86
2022-09-24T04:27:24.849Z,14.86
2022-09-24T04:29:54.161Z,14.85
2022-09-24T04:32:22.473Z,14.86
2022-09-24T04:34:50.131Z,14.87
2022-09-24T04:37:17.819Z,14.88
2022-09-24T04:39:45.610Z,14.88
2022-09-24T04:42:18.055Z,14.87
2022-09-24T04:44:47.760Z,14.85
2022-09-24T04:47:15.944Z,14.80
2022-09-24T04:49:45.732Z,14.81
2022-09-24T04:52:14.899Z,14.79
2022-09-24T04:54:46.879Z,14.79
2022-09-24T04:57:15.092Z,14.79
2022-09-24T04:59:43.150Z,14.78
2022-09-24T05:02:12.367Z,14.78
2022-09-24T05:04:40.037Z,14.78
2022-09-24T05:07:07.661Z,14.78
2022-09-24T05:09:35.263Z,14.75
2022-09-24T05:12:03.511Z,14.75
2022-09-24T05:14:31.252Z,14.77
2022-09-24T05:16:58.971Z,14.77
2022-09-24T05:19:28.132Z,14.77
2022-09-24T05:21:55.770Z,14.77
2022-09-24T05:24:23.464Z,14.77
2022-09-24T05:27:08.440Z,14.77
2022-09-24T05:29:36.406Z,14.77
2022-09-24T05:32:06.329Z,14.76
2022-09-24T05:34:35.897Z,14.76
2022-09-24T05:37:04.079Z,14.74
2022-09-24T05:39:34.090Z,14.75
2022-09-24T05:42:03.641Z,14.74
2022-09-24T05:44:31.293Z,14.75
2022-09-24T05:46:59.582Z,14.74
2022-09-24T05:49:27.265Z,14.73
2022-09-24T05:51:56.840Z,14.75
2022-09-24T05:54:24.535Z,14.75
2022-09-24T05:56:52.155Z,14.78
2022-09-24T05:59:19.847Z,14.79
2022-09-24T06:01:49.117Z,14.81
2022-09-24T06:04:16.977Z,14.81
2022-09-24T06:06:45.239Z,14.82
2022-09-24T06:09:14.645Z,14.82
2022-09-24T06:11:42.485Z,14.85
2022-09-24T06:14:11.204Z,14.88
2022-09-24T06:16:38.927Z,14.90
2022-09-24T06:19:06.635Z,14.92
2022-09-24T06:21:34.237Z,14.93
2022-09-24T06:24:03.076Z,14.95
2022-09-24T06:26:33.065Z,14.98
2022-09-24T06:29:04.679Z,15.00
2022-09-24T06:31:34.199Z,15.04
2022-09-24T06:34:02.648Z,15.05
2022-09-24T06:36:30.275Z,15.09
2022-09-24T06:38:58.540Z,15.10
2022-09-24T06:41:26.187Z,15.09
2022-09-24T06:43:56.170Z,15.12
2022-09-24T06:46:25.725Z,15.16
2022-09-24T06:48:54.784Z,15.20
2022-09-24T06:51:22.503Z,15.23
2022-09-24T06:53:52.268Z,15.23
2022-09-24T06:56:19.938Z,15.24
2022-09-24T06:58:47.609Z,15.28
2022-09-24T07:01:16.729Z,15.33
2022-09-24T07:03:44.617Z,15.38
2022-09-24T07:06:12.232Z,15.43
2022-09-24T07:08:39.879Z,15.51
2022-09-24T07:11:07.711Z,15.55
2022-09-24T07:13:35.359Z,15.62
2022-09-24T07:16:03.635Z,15.68
2022-09-24T07:18:32.762Z,15.76
2022-09-24T07:21:00.380Z,15.82
2022-09-24T07:23:28.058Z,15.86
2022-09-24T07:25:57.218Z,15.90
2022-09-24T07:28:24.827Z,15.96
2022-09-24T07:30:57.667Z,16.08
2022-09-24T07:33:25.511Z,16.18
2022-09-24T07:35:54.495Z,16.24
2022-09-24T07:38:22.239Z,16.36
2022-09-24T07:40:50.142Z,16.40
2022-09-24T07:43:17.884Z,16.46
2022-09-24T07:45:46.723Z,16.48
2022-09-24T07:48:15.769Z,16.51
2022-09-24T07:50:44.016Z,16.53
2022-09-24T07:53:14.211Z,16.58
2022-09-24T07:55:41.971Z,16.60
2022-09-24T07:58:13.499Z,16.61
2022-09-24T08:00:41.383Z,16.67
2022-09-24T08:03:09.054Z,16.74
2022-09-24T08:05:37.178Z,16.84
2022-09-24T08:08:04.823Z,16.95
2022-09-24T08:10:33.862Z,17.08
2022-09-24T08:13:03.332Z,17.22
2022-09-24T08:16:01.788Z,17.31
2022-09-24T08:18:19.694Z,17.36
2022-09-24T08:20:47.341Z,17.37
2022-09-24T08:23:15.035Z,17.42
2022-09-24T08:25:44.080Z,17.44
2022-09-24T08:28:12.203Z,17.47
2022-09-24T08:30:40.905Z,17.53
2022-09-24T08:33:08.921Z,17.56
2022-09-24T08:35:37.013Z,17.59
2022-09-24T08:38:04.651Z,17.63
2022-09-24T08:40:37.215Z,17.61
2022-09-24T08:43:18.629Z,17.60
2022-09-24T08:46:07.899Z,17.59
2022-09-24T08:48:38.799Z,17.59
2022-09-24T08:51:12.601Z,17.61
2022-09-24T08:53:48.699Z,17.62
2022-09-24T08:56:19.970Z,17.66
2022-09-24T08:58:54.014Z,17.67
2022-09-24T09:01:32.596Z,17.69
2022-09-24T09:04:05.319Z,17.75
2022-09-24T09:06:51.737Z,17.80
2022-09-24T09:09:22.572Z,17.80
2022-09-24T09:11:53.001Z,17.85
2022-09-24T09:14:31.434Z,17.93
2022-09-24T09:17:03.901Z,18.04
2022-09-24T09:19:35.171Z,18.09
2022-09-24T09:22:08.458Z,18.16
2022-09-24T09:24:42.735Z,18.23
2022-09-24T09:27:14.746Z,18.29
2022-09-24T09:29:46.137Z,18.34
2022-09-24T09:32:28.878Z,18.34
2022-09-24T09:35:04.952Z,18.35
2022-09-24T09:37:43.804Z,18.29
2022-09-24T09:40:31.684Z,18.31
2022-09-24T09:43:02.915Z,18.35
2022-09-24T09:45:37.928Z,18.39
2022-09-24T09:48:06.957Z,18.38
2022-09-24T09:50:40.759Z,18.37
2022-09-24T09:53:20.216Z,18.41
2022-09-24T09:55:53.692Z,18.45
2022-09-24T09:58:24.868Z,18.46
2022-09-24T10:01:03.611Z,18.43
2022-09-24T10:03:34.346Z,18.50
2022-09-24T10:06:04.212Z,18.62
2022-09-24T10:08:32.886Z,18.70
2022-09-24T10:11:03.319Z,18.69
2022-09-24T10:13:32.528Z,18.72
2022-09-24T10:16:04.666Z,18.81
2022-09-24T10:18:37.111Z,18.85
2022-09-24T10:21:12.100Z,18.90
2022-09-24T10:23:42.586Z,18.87
2022-09-24T10:26:11.307Z,18.90
2022-09-24T10:29:03.994Z,18.91
2022-09-24T10:31:36.463Z,18.95
2022-09-24T10:34:17.964Z,18.96
2022-09-24T10:36:51.435Z,18.92
2022-09-24T10:39:19.166Z,18.91
2022-09-24T10:41:48.104Z,18.95
2022-09-24T10:44:16.541Z,18.96
2022-09-24T10:46:58.919Z,18.96
2022-09-24T10:49:41.594Z,18.92
2022-09-24T10:52:13.927Z,18.92
2022-09-24T10:54:56.199Z,19.04
2022-09-24T10:57:34.353Z,19.17
2022-09-24T11:00:12.611Z,19.22
2022-09-24T11:03:07.145Z,19.27
2022-09-24T11:05:38.282Z,19.35
2022-09-24T11:08:20.145Z,19.40
2022-09-24T11:11:14.395Z,19.44
2022-09-24T11:13:51.565Z,19.46
2022-09-24T11:16:38.967Z,19.50
2022-09-24T11:19:22.069Z,19.43
2022-09-24T11:22:04.241Z,19.34
2022-09-24T11:24:48.632Z,19.31
2022-09-24T11:27:38.359Z,19.36
2022-09-24T11:30:13.116Z,19.48
2022-09-24T11:33:01.294Z,19.57
2022-09-24T11:35:44.872Z,19.63
2022-09-24T11:38:18.011Z,19.69
2022-09-24T11:41:10.214Z,19.76
2022-09-24T11:44:06.021Z,19.81
2022-09-24T11:46:48.019Z,19.76
2022-09-24T11:49:34.736Z,19.66
2022-09-24T11:52:11.183Z,19.62
2022-09-24T11:54:44.733Z,19.58
2022-09-24T11:57:17.079Z,19.55
2022-09-24T11:59:49.759Z,19.57
2022-09-24T12:02:24.976Z,19.53
2022-09-24T12:04:59.086Z,19.52
2022-09-24T12:07:35.379Z,19.51
2022-09-24T12:10:08.381Z,19.61
2022-09-24T12:12:41.538Z,19.61
2022-09-24T12:15:18.382Z,19.35
2022-09-24T12:17:52.342Z,19.25
2022-09-24T12:20:24.538Z,19.14
2022-09-24T12:22:59.938Z,19.17
2022-09-24T12:25:30.446Z,19.31
2022-09-24T12:28:00.271Z,19.47
2022-09-24T12:30:53.784Z,19.46
2022-09-24T12:33:30.109Z,19.30
2022-09-24T12:36:16.058Z,19.34
2022-09-24T12:38:48.894Z,19.33
2022-09-24T12:41:35.940Z,19.29
2022-09-24T12:44:18.319Z,19.09
2022-09-24T12:46:53.189Z,19.05
2022-09-24T12:49:31.054Z,19.05
2022-09-24T12:52:01.234Z,18.99
2022-09-24T12:54:32.036Z,18.95
2022-09-24T12:57:08.259Z,18.93
2022-09-24T12:59:46.652Z,18.83
2022-09-24T13:02:20.985Z,18.84
2022-09-24T13:05:04.990Z,18.80
2022-09-24T13:07:35.662Z,18.84
2022-09-24T13:10:23.309Z,18.81
2022-09-24T13:12:51.902Z,18.87
2022-09-24T13:15:28.556Z,18.90
2022-09-24T13:18:24.072Z,18.87
2022-09-24T13:21:01.463Z,18.74
2022-09-24T13:23:35.331Z,18.77
2022-09-24T13:26:06.211Z,18.77
2022-09-24T13:28:42.632Z,18.76
2022-09-24T13:31:20.376Z,18.82
2022-09-24T13:33:52.387Z,18.95
2022-09-24T13:36:26.963Z,19.02
2022-09-24T13:39:00.218Z,19.09
2022-09-24T13:41:41.992Z,19.17
2022-09-24T13:44:18.155Z,19.31
2022-09-24T13:46:48.645Z,19.34
2022-09-24T13:49:19.806Z,19.31
2022-09-24T13:51:57.587Z,19.19
2022-09-24T13:54:34.094Z,19.15
2022-09-24T13:57:16.676Z,19.19
2022-09-24T13:59:44.292Z,19.18
2022-09-24T14:02:25.391Z,19.17
2022-09-24T14:04:58.701Z,19.18
2022-09-24T14:07:28.576Z,19.11
2022-09-24T14:10:05.096Z,19.09
2022-09-24T14:12:34.165Z,19.07
2022-09-24T14:15:04.471Z,19.11
2022-09-24T14:17:32.073Z,19.03
2022-09-24T14:20:00.442Z,19.06
2022-09-24T14:22:35.404Z,18.99
2022-09-24T14:25:08.097Z,18.87
2022-09-24T14:27:42.014Z,18.94
2022-09-24T14:30:19.788Z,18.90
2022-09-24T14:32:53.708Z,18.78
2022-09-24T14:35:29.596Z,18.73
2022-09-24T14:38:04.298Z,18.60
2022-09-24T14:40:41.939Z,18.55
2022-09-24T14:43:19.405Z,18.57
2022-09-24T14:45:48.965Z,18.44
2022-09-24T14:48:21.777Z,18.39
2022-09-24T14:50:49.479Z,18.29
2022-09-24T14:53:23.663Z,18.25
2022-09-24T14:55:51.783Z,18.25
2022-09-24T14:58:34.909Z,18.22
2022-09-24T15:01:05.449Z,18.12
2022-09-24T15:03:39.900Z,17.98
2022-09-24T15:06:18.564Z,17.83
2022-09-24T15:08:53.846Z,17.79
2022-09-24T15:11:21.567Z,17.74
2022-09-24T15:14:00.105Z,17.71
2022-09-24T15:16:31.808Z,17.72
2022-09-24T15:19:14.141Z,17.77
2022-09-24T15:21:41.860Z,17.73
2022-09-24T15:24:09.978Z,17.71
2022-09-24T15:26:40.481Z,17.73
2022-09-24T15:29:16.575Z,17.73
2022-09-24T15:31:44.345Z,17.77
2022-09-24T15:34:14.456Z,17.79
2022-09-24T15:36:46.037Z,17.77
2022-09-24T15:39:13.771Z,17.74
2022-09-24T15:41:41.416Z,17.70
2022-09-24T15:44:29.723Z,17.60
2022-09-24T15:46:59.179Z,17.59
2022-09-24T15:49:26.831Z,17.63
2022-09-24T15:51:59.244Z,17.53
2022-09-24T15:54:26.758Z,17.46
2022-09-24T15:56:54.477Z,17.41
2022-09-24T15:59:24.249Z,17.38
2022-09-24T16:01:55.257Z,17.35
2022-09-24T16:04:22.910Z,17.32
2022-09-24T16:06:50.646Z,17.26
2022-09-24T16:09:18.305Z,17.19
2022-09-24T16:11:46.774Z,17.17
2022-09-24T16:14:14.455Z,17.21
2022-09-24T16:16:43.546Z,17.14
2022-09-24T16:19:12.374Z,17.14
2022-09-24T16:21:40.252Z,17.06
2022-09-24T16:24:07.971Z,16.98
2022-09-24T16:26:35.675Z,17.02
2022-09-24T16:29:04.016Z,17.06
2022-09-24T16:31:31.713Z,17.04
2022-09-24T16:34:00.983Z,17.03
2022-09-24T16:36:28.631Z,16.96
2022-09-24T16:38:57.648Z,16.93
2022-09-24T16:41:25.243Z,16.82
2022-09-24T16:43:56.894Z,16.79
2022-09-24T16:46:24.814Z,16.82
2022-09-24T16:48:52.573Z,16.83
2022-09-24T16:51:22.075Z,16.83
2022-09-24T16:53:51.281Z,16.83
2022-09-24T16:56:18.926Z,16.81
2022-09-24T16:58:47.529Z,16.75
2022-09-24T17:01:16.678Z,16.60
2022-09-24T17:03:46.541Z,16.56
2022-09-24T17:06:18.557Z,16.58
2022-09-24T17:09:04.873Z,16.48
2022-09-24T17:11:32.612Z,16.49
2022-09-24T17:14:01.148Z,16.51
2022-09-24T17:16:30.351Z,16.47
2022-09-24T17:18:58.170Z,16.45
2022-09-24T17:21:25.958Z,16.42
2022-09-24T17:23:54.981Z,16.30
2022-09-24T17:26:23.451Z,16.24
2022-09-24T17:28:53.343Z,16.22
2022-09-24T17:31:22.864Z,16.26
2022-09-24T17:33:59.301Z,16.31
2022-09-24T17:36:28.206Z,16.35
2022-09-24T17:39:01.470Z,16.33
2022-09-24T17:41:30.793Z,16.25
2022-09-24T17:44:00.491Z,16.26
2022-09-24T17:46:32.345Z,16.32
2022-09-24T17:49:03.235Z,16.21
2022-09-24T17:51:48.056Z,16.16
2022-09-24T17:54:21.449Z,16.16
2022-09-24T17:56:51.984Z,16.17
2022-09-24T17:59:26.953Z,16.14
2022-09-24T18:02:11.612Z,16.14
2022-09-24T18:04:40.203Z,16.17
2022-09-24T18:07:07.830Z,16.15
2022-09-24T18:09:58.750Z,16.17
2022-09-24T18:12:31.995Z,16.16
2022-09-24T18:14:59.634Z,16.09
2022-09-24T18:17:38.671Z,16.11
2022-09-24T18:20:09.078Z,16.13
2022-09-24T18:22:43.891Z,16.15
2022-09-24T18:25:13.821Z,16.14
2022-09-24T18:27:48.702Z,16.13
2022-09-24T18:30:21.513Z,16.15
2022-09-24T18:32:55.074Z,16.06
2022-09-24T18:35:23.114Z,16.03
2022-09-24T18:37:50.774Z,16.02
2022-09-24T18:40:20.419Z,16.00
2022-09-24T18:42:50.433Z,16.03
2022-09-24T18:45:36.264Z,16.04
2022-09-24T18:48:06.443Z,15.92
2022-09-24T18:50:35.839Z,15.89
2022-09-24T18:53:04.779Z,15.89
2022-09-24T18:55:33.933Z,15.87
2022-09-24T18:58:05.662Z,15.86
2022-09-24T19:00:51.363Z,15.84
2022-09-24T19:03:25.219Z,15.76
2022-09-24T19:05:59.440Z,15.68
2022-09-24T19:08:32.221Z,15.65
2022-09-24T19:11:09.278Z,15.62
2022-09-24T19:13:38.582Z,15.63
2022-09-24T19:16:12.644Z,15.65
2022-09-24T19:18:46.387Z,15.64
2022-09-24T19:21:15.569Z,15.54
2022-09-24T19:23:46.255Z,15.57
2022-09-24T19:26:21.853Z,15.61
2022-09-24T19:28:55.923Z,15.64
2022-09-24T19:31:31.701Z,15.65
2022-09-24T19:34:02.835Z,15.65
2022-09-24T19:36:30.854Z,15.66
2022-09-24T19:38:59.025Z,15.62
2022-09-24T19:41:29.084Z,15.58
2022-09-24T19:44:08.217Z,15.57
2022-09-24T19:46:40.971Z,15.60
2022-09-24T19:49:12.592Z,15.56
2022-09-24T19:51:40.411Z,15.51
2022-09-24T19:54:09.548Z,15.50
2022-09-24T19:56:38.899Z,15.52
2022-09-24T19:59:07.895Z,15.50
2022-09-24T20:01:35.695Z,15.51
2022-09-24T20:04:05.731Z,15.52
2022-09-24T20:06:34.980Z,15.49
2022-09-24T20:09:02.940Z,15.48
2022-09-24T20:11:32.543Z,15.49
2022-09-24T20:14:02.592Z,15.49
2022-09-24T20:16:32.414Z,15.49
2022-09-24T20:19:00.333Z,15.46
2022-09-24T20:21:31.334Z,15.43
2022-09-24T20:24:01.153Z,15.45
2022-09-24T20:26:46.165Z,15.47
2022-09-24T20:29:16.136Z,15.48
2022-09-24T20:31:51.749Z,15.49
2022-09-24T20:34:20.100Z,15.46
2022-09-24T20:36:47.829Z,15.47
2022-09-24T20:39:15.631Z,15.36
2022-09-24T20:41:43.844Z,15.36
2022-09-24T20:44:11.563Z,15.39
2022-09-24T20:46:40.682Z,15.38
2022-09-24T20:49:08.403Z,15.23
2022-09-24T20:51:37.163Z,15.19
2022-09-24T20:54:04.993Z,15.06
2022-09-24T20:56:32.611Z,15.07
2022-09-24T20:59:00.908Z,15.05
2022-09-24T21:01:28.782Z,15.14
2022-09-24T21:03:58.239Z,15.09
2022-09-24T21:06:26.007Z,15.08
2022-09-24T21:08:53.954Z,15.15
2022-09-24T21:11:25.110Z,15.16
2022-09-24T21:13:54.676Z,15.15
2022-09-24T21:16:24.959Z,15.02
2022-09-24T21:18:54.331Z,14.93
2022-09-24T21:21:25.079Z,14.90
2022-09-24T21:23:54.569Z,14.89
2022-09-24T21:26:23.873Z,14.89
2022-09-24T21:28:53.260Z,14.94
2022-09-24T21:31:23.623Z,14.97
2022-09-24T21:33:53.526Z,14.96
2022-09-24T21:36:24.148Z,14.95
2022-09-24T21:38:55.608Z,14.93
2022-09-24T21:41:23.581Z,14.96
2022-09-24T21:43:53.373Z,14.99
2022-09-24T21:46:21.029Z,15.00
2022-09-24T21:48:49.017Z,14.96
2022-09-24T21:51:21.247Z,14.85
2022-09-24T21:53:50.924Z,14.76
2022-09-24T21:56:19.654Z,14.70
2022-09-24T21:58:47.764Z,14.74
2022-09-24T22:01:18.207Z,14.79
2022-09-24T22:03:46.644Z,14.76
2022-09-24T22:06:14.647Z,14.67
2022-09-24T22:08:43.231Z,14.64
2022-09-24T22:11:13.517Z,14.68
2022-09-24T22:13:41.897Z,14.75
2022-09-24T22:16:11.590Z,14.78
2022-09-24T22:18:39.911Z,14.74
2022-09-24T22:21:10.097Z,14.68
2022-09-24T22:23:38.208Z,14.66
2022-09-24T22:26:06.926Z,14.66
2022-09-24T22:28:37.834Z,14.69
2022-09-24T22:31:08.299Z,14.63
2022-09-24T22:33:53.648Z,14.64
2022-09-24T22:36:21.925Z,14.65
2022-09-24T22:38:52.802Z,14.55
2022-09-24T22:41:20.496Z,14.50
2022-09-24T22:43:49.519Z,14.52
2022-09-24T22:46:17.569Z,14.53
2022-09-24T22:48:47.183Z,14.52
2022-09-24T22:51:15.542Z,14.57
2022-09-24T22:53:43.606Z,14.53
2022-09-24T22:56:12.766Z,14.38
2022-09-24T22:58:43.370Z,14.43
2022-09-24T23:01:15.031Z,14.34
2022-09-24T23:03:44.135Z,14.41
2022-09-24T23:06:12.704Z,14.43
2022-09-24T23:08:41.059Z,14.26
2022-09-24T23:11:10.471Z,14.26
2022-09-24T23:13:39.386Z,14.19
2022-09-24T23:16:09.690Z,14.23
2022-09-24T23:18:39.008Z,14.15
2022-09-24T23:21:07.786Z,14.07
2022-09-24T23:23:35.541Z,14.13
2022-09-24T23:26:07.058Z,14.11
2022-09-24T23:28:36.493Z,14.11
2022-09-24T23:31:04.674Z,14.11
2022-09-24T23:33:33.239Z,14.10
2022-09-24T23:36:03.248Z,14.14
2022-09-24T23:38:31.353Z,14.17
2022-09-24T23:41:00.686Z,14.13
2022-09-24T23:43:28.743Z,14.04
2022-09-24T23:45:56.839Z,14.05
2022-09-24T23:48:25.649Z,14.14
2022-09-24T23:50:53.469Z,14.22
2022-09-24T23:53:22.762Z,14.18
2022-09-24T23:55:51.390Z,14.20
2022-09-24T23:58:20.941Z,14.16
